Airfield :
LOGIN :

Register | Disclaimer

   EN    FR    IT 

 










Legend :    VFR   Marginal VFR   IFR   Intensive IFR   Very Intensive IFR
Visi :
Ceiling :
>= 8 km
>= 3000ft
5 to 8 km
1000 to 3000 ft
1500m to 5 km
500 to 1000 ft
800 to 1500m
200 to 500 ft
< 800m
< 200 ft
Symbols :   Thunderstorms  Fog  Heavy snow  Heavy precipitations  Wind > 20 kt
SIGMETs :     Misc.  Thunderstorms  Icing  Turbulence  Mountain Waves  Volcanic Ashes







- Airport Elevation : 32 ft
- IATA code : LKZ


EGUL - RAF Lakenheath

CURRENT METAR :
  • 261056Z AUTO 25015G24KT 9999 FEW026 FEW200 22/21 A2983 RMK AO2 SLP104 T02170205 $

EXPIRED METARs :
  • 261045Z 24018G21KT 9999 SCT026 SCT200 21/20 A2983 RMK SLP104 $
  • 260956Z AUTO 23017KT 9999 CLR 18/18 A2985 RMK AO2 SLP111 T01840184 $
  • 260856Z AUTO 24012KT 9999 FEW060 17/17 A2986 RMK AO2 SLP115 T01740174 57010 $

TAF AMD TAF EGUL
Valid from the 26 at 10:00 until the 27 at 16:00 UTC


261054Z 2610/2716 23012G18KT 9999 SCT025 BKN110 QNH2975INS
BECMG 2611/2612 25012G20KT 8000 -SHRA BKN015 OVC025 620901 QNH2975INS
BECMG 2618/2619 28012KT 9999 NSW SCT020 QNH2980INS
BECMG 2708/2709 27012G20KT 9999 BKN030 QNH2979INS TX21/2615Z TN09/2703Z
No reported NOTAMs for that airfield.



MET'MAP, your aeronautical weather chart ! - Copyright ORBIFLY December 2007 - Disclaimer

ORBIFLY MET'MAP TEAM :

Programming & Development : Alexandra Zaïnal
Concept & Development : Baudouin d'Aumeries
Co-Development & Prog : Marc-Olivier Méhu
Technical & hardware support : Manuel Goepfert

Contact : metmap@orbifly.com




SOURCES & CREDITS :

   NOAA